createdAt,value
2019-03-24T00:02:47.809Z,103151.95
2019-03-24T00:05:46.729Z,103120.51
2019-03-24T00:08:32.370Z,103145.78
2019-03-24T00:11:17.213Z,103145.88
2019-03-24T00:14:02.447Z,103148.17
2019-03-24T00:16:48.061Z,103112.41
2019-03-24T00:19:35.003Z,103116.30
2019-03-24T00:22:20.648Z,103113.45
2019-03-24T00:25:05.715Z,103147.52
2019-03-24T00:27:50.566Z,103144.45
2019-03-24T00:30:34.784Z,103134.06
2019-03-24T00:33:24.744Z,103132.53
2019-03-24T00:36:09.809Z,103104.55
2019-03-24T00:38:56.660Z,103091.83
2019-03-24T00:44:48.946Z,103103.11
2019-03-24T00:47:33.304Z,103130.28
2019-03-24T00:50:17.829Z,103110.61
2019-03-24T00:53:01.687Z,103085.06
2019-03-24T00:55:46.434Z,103119.78
2019-03-24T00:58:31.145Z,103095.25
2019-03-24T01:01:15.580Z,103089.59
2019-03-24T01:03:59.662Z,103080.80
2019-03-24T01:06:33.789Z,103113.08
2019-03-24T01:09:23.970Z,103109.94
2019-03-24T01:11:57.043Z,103111.30
2019-03-24T01:17:51.800Z,103108.31
2019-03-24T01:20:35.933Z,103098.27
2019-03-24T01:23:26.034Z,103073.87
2019-03-24T01:26:09.855Z,103100.61
2019-03-24T01:28:42.965Z,103103.42
2019-03-24T01:31:27.202Z,103093.49
2019-03-24T01:37:15.955Z,103070.94
2019-03-24T01:40:04.111Z,103070.37
2019-03-24T01:42:48.587Z,103069.11
2019-03-24T01:45:33.367Z,103087.73
2019-03-24T01:48:17.910Z,103089.74
2019-03-24T01:51:02.451Z,103065.40
2019-03-24T01:56:57.486Z,103109.78
2019-03-24T01:59:47.581Z,103071.73
2019-03-24T02:02:32.511Z,103084.06
2019-03-24T02:05:16.777Z,103052.11
2019-03-24T02:11:03.585Z,103080.50
2019-03-24T02:13:47.582Z,103051.22
2019-03-24T02:16:38.552Z,103046.42
2019-03-24T02:19:22.357Z,103080.89
2019-03-24T02:22:07.218Z,103084.48
2019-03-24T02:31:07.911Z,103085.53
2019-03-24T02:33:53.776Z,103068.52
2019-03-24T02:36:44.377Z,103058.09
2019-03-24T02:39:39.950Z,103050.29
2019-03-24T02:42:24.080Z,103075.35
2019-03-24T02:51:22.742Z,103036.96
2019-03-24T02:54:12.526Z,103068.19
2019-03-24T02:56:56.734Z,103070.36
2019-03-24T02:59:41.358Z,103032.22
2019-03-24T03:02:25.781Z,103037.14
2019-03-24T03:08:19.830Z,103039.89
2019-03-24T03:11:03.868Z,103037.41
2019-03-24T03:13:50.649Z,103049.17
2019-03-24T03:16:38.699Z,103045.59
2019-03-24T03:19:24.937Z,103046.27
2019-03-24T03:22:09.197Z,103025.19
2019-03-24T03:24:55.784Z,103055.98
2019-03-24T03:30:39.205Z,103052.17
2019-03-24T03:33:23.984Z,103009.90
2019-03-24T03:39:25.370Z,103005.44
2019-03-24T03:42:09.889Z,103020.35
2019-03-24T03:44:55.176Z,103013.47
2019-03-24T03:47:39.807Z,102987.15
2019-03-24T03:50:24.085Z,103011.64
2019-03-24T03:59:37.530Z,102984.88
2019-03-24T04:02:22.980Z,102986.06
2019-03-24T04:05:09.291Z,103007.61
2019-03-24T04:07:55.248Z,102980.45
2019-03-24T04:17:07.119Z,102975.37
2019-03-24T04:22:58.810Z,102970.06
2019-03-24T04:28:57.807Z,102993.89
2019-03-24T04:31:41.854Z,102986.14
2019-03-24T04:34:32.462Z,102972.91
2019-03-24T04:37:16.252Z,102976.53
2019-03-24T04:40:00.204Z,102965.37
2019-03-24T04:42:45.609Z,103000.89
2019-03-24T04:45:29.593Z,102966.98
2019-03-24T04:48:13.569Z,102959.88
2019-03-24T04:50:57.691Z,102987.78
2019-03-24T04:53:45.505Z,102988.03
2019-03-24T04:56:29.779Z,102986.97
2019-03-24T05:02:11.164Z,102978.78
2019-03-24T05:04:56.451Z,102977.48
2019-03-24T05:07:43.950Z,102954.05
2019-03-24T05:13:31.437Z,102954.12
2019-03-24T05:16:15.820Z,102976.06
2019-03-24T05:21:51.791Z,102985.09
2019-03-24T05:27:41.890Z,102959.02
2019-03-24T05:33:17.113Z,102993.95
2019-03-24T05:36:01.961Z,102997.27
2019-03-24T05:38:49.910Z,102972.14
2019-03-24T05:41:34.676Z,102994.73
2019-03-24T05:44:18.783Z,102990.02
2019-03-24T05:47:09.386Z,102954.55
2019-03-24T05:49:53.174Z,102955.34
2019-03-24T05:55:46.792Z,102953.48
2019-03-24T05:58:37.338Z,102982.77
2019-03-24T06:01:23.195Z,102966.00
2019-03-24T06:10:15.809Z,102950.26
2019-03-24T06:13:03.726Z,102964.20
2019-03-24T06:15:48.686Z,102962.91
2019-03-24T06:18:32.939Z,102932.53
2019-03-24T06:21:17.336Z,102959.52
2019-03-24T06:24:03.154Z,102930.72
2019-03-24T06:29:51.284Z,102922.75
2019-03-24T06:35:46.767Z,102948.70
2019-03-24T06:38:30.880Z,102922.17
2019-03-24T06:44:18.288Z,102908.73
2019-03-24T06:47:02.275Z,102934.82
2019-03-24T06:49:46.947Z,102901.09
2019-03-24T06:52:31.245Z,102910.83
2019-03-24T06:55:15.519Z,102926.95
2019-03-24T06:58:01.332Z,102907.00
2019-03-24T07:00:47.209Z,102915.77
2019-03-24T07:03:32.809Z,102928.98
2019-03-24T07:06:18.291Z,102958.25
2019-03-24T07:09:03.014Z,102934.32
2019-03-24T07:11:53.114Z,102933.12
2019-03-24T07:14:36.995Z,102916.84
2019-03-24T07:17:22.059Z,102922.52
2019-03-24T07:20:06.766Z,102939.36
2019-03-24T07:22:51.196Z,102924.13
2019-03-24T07:25:36.010Z,102925.37
2019-03-24T07:28:20.254Z,102954.67
2019-03-24T07:31:04.932Z,102953.24
2019-03-24T07:33:51.520Z,102945.91
2019-03-24T07:36:35.951Z,102914.72
2019-03-24T07:39:20.559Z,102939.91
2019-03-24T07:41:53.598Z,102934.86
2019-03-24T07:44:38.290Z,102899.86
2019-03-24T07:47:22.670Z,102908.73
2019-03-24T07:50:06.793Z,102903.09
2019-03-24T07:52:39.928Z,102928.16
2019-03-24T07:55:23.968Z,102933.83
2019-03-24T07:58:08.780Z,102925.00
2019-03-24T08:00:53.890Z,102923.80
2019-03-24T08:03:38.589Z,102927.56
2019-03-24T08:06:12.490Z,102927.23
2019-03-24T08:08:56.417Z,102894.00
2019-03-24T08:11:41.037Z,102895.98
2019-03-24T08:14:25.565Z,102884.23
2019-03-24T08:17:10.171Z,102885.46
2019-03-24T08:19:43.500Z,102905.55
2019-03-24T08:22:27.417Z,102895.13
2019-03-24T08:25:11.598Z,102902.32
2019-03-24T08:27:56.282Z,102871.44
2019-03-24T08:30:40.129Z,102865.97
2019-03-24T08:36:33.771Z,102863.30
2019-03-24T08:39:18.506Z,102854.45
2019-03-24T08:42:02.552Z,102858.81
2019-03-24T08:47:56.780Z,102873.87
2019-03-24T08:50:40.835Z,102872.37
2019-03-24T08:53:25.989Z,102844.45
2019-03-24T08:56:10.148Z,102840.63
2019-03-24T08:58:54.632Z,102832.24
2019-03-24T09:01:27.526Z,102855.28
2019-03-24T09:04:13.523Z,102819.79
2019-03-24T09:06:57.968Z,102814.30
2019-03-24T09:09:44.535Z,102842.52
2019-03-24T09:12:31.149Z,102800.67
2019-03-24T09:15:17.096Z,102829.22
2019-03-24T09:18:00.990Z,102827.36
2019-03-24T09:20:47.550Z,102798.67
2019-03-24T09:23:31.936Z,102798.27
2019-03-24T09:26:16.985Z,102830.28
2019-03-24T09:29:01.164Z,102804.69
2019-03-24T09:31:47.182Z,102804.47
2019-03-24T09:34:31.183Z,102823.63
2019-03-24T09:37:15.484Z,102830.27
2019-03-24T09:39:59.972Z,102829.59
2019-03-24T09:42:33.255Z,102825.64
2019-03-24T09:45:17.553Z,102799.73
2019-03-24T09:48:02.241Z,102818.25
2019-03-24T09:50:49.246Z,102812.49
2019-03-24T09:53:33.272Z,102773.72
2019-03-24T09:56:17.396Z,102756.88
2019-03-24T09:59:03.205Z,102766.27
2019-03-24T10:01:47.806Z,102757.98
2019-03-24T10:04:31.656Z,102734.70
2019-03-24T10:07:16.434Z,102749.67
2019-03-24T10:10:01.070Z,102753.91
2019-03-24T10:12:45.234Z,102744.47
2019-03-24T10:15:29.515Z,102719.83
2019-03-24T10:18:13.947Z,102705.07
2019-03-24T10:20:58.670Z,102714.87
2019-03-24T10:23:42.832Z,102723.81
2019-03-24T10:26:27.536Z,102718.77
2019-03-24T10:29:11.403Z,102724.53
2019-03-24T10:31:55.488Z,102749.70
2019-03-24T10:34:40.458Z,102730.36
2019-03-24T10:37:24.982Z,102728.62
2019-03-24T10:40:09.729Z,102755.43
2019-03-24T10:42:54.873Z,102728.78
2019-03-24T10:45:39.960Z,102737.59
2019-03-24T10:48:33.338Z,102750.40
2019-03-24T10:51:10.216Z,102737.91
2019-03-24T10:53:54.526Z,102725.61
2019-03-24T10:56:39.309Z,102751.72
2019-03-24T10:59:24.149Z,102747.96
2019-03-24T11:02:08.423Z,102717.17
2019-03-24T11:04:53.381Z,102707.02
2019-03-24T11:07:37.925Z,102719.85
2019-03-24T11:10:21.693Z,102699.83
2019-03-24T11:13:06.319Z,102672.84
2019-03-24T11:15:40.369Z,102692.05
2019-03-24T11:18:24.964Z,102672.16
2019-03-24T11:21:09.819Z,102695.28
2019-03-24T11:23:54.971Z,102692.89
2019-03-24T11:26:39.337Z,102695.14
2019-03-24T11:29:24.069Z,102694.07
2019-03-24T11:32:08.590Z,102693.76
2019-03-24T11:34:52.941Z,102662.00
2019-03-24T11:37:36.904Z,102701.77
2019-03-24T11:40:20.772Z,102695.88
2019-03-24T11:43:04.786Z,102686.97
2019-03-24T11:45:50.043Z,102656.61
2019-03-24T11:48:34.677Z,102667.27
2019-03-24T11:51:19.586Z,102665.28
2019-03-24T11:54:03.938Z,102660.95
2019-03-24T11:56:48.601Z,102664.66
2019-03-24T11:59:32.711Z,102656.02
2019-03-24T12:02:17.330Z,102629.02
2019-03-24T12:05:01.173Z,102611.97
2019-03-24T12:07:45.382Z,102611.55
2019-03-24T12:10:30.759Z,102607.13
2019-03-24T12:13:14.815Z,102604.41
2019-03-24T12:15:59.733Z,102626.39
2019-03-24T12:18:44.670Z,102626.22
2019-03-24T12:21:29.311Z,102590.98
2019-03-24T12:24:13.999Z,102597.39
2019-03-24T12:26:58.128Z,102618.05
2019-03-24T12:29:41.931Z,102588.44
2019-03-24T12:32:25.693Z,102580.23
2019-03-24T12:34:59.824Z,102592.77
2019-03-24T12:37:44.576Z,102593.94
2019-03-24T12:40:29.691Z,102588.84
2019-03-24T12:43:19.502Z,102584.40
2019-03-24T12:46:01.258Z,102562.86
2019-03-24T12:48:45.196Z,102547.38
2019-03-24T12:51:18.237Z,102567.49
2019-03-24T12:54:08.747Z,102537.53
2019-03-24T12:56:55.295Z,102563.09
2019-03-24T12:59:39.823Z,102533.59
2019-03-24T13:02:24.673Z,102545.56
2019-03-24T13:05:09.447Z,102528.05
2019-03-24T13:07:59.514Z,102527.50
2019-03-24T13:10:44.287Z,102527.21
2019-03-24T13:13:28.677Z,102519.00
2019-03-24T13:16:12.783Z,102519.24
2019-03-24T13:18:57.360Z,102519.70
2019-03-24T13:21:43.047Z,102515.23
2019-03-24T13:24:27.445Z,102513.40
2019-03-24T13:27:13.953Z,102533.89
2019-03-24T13:29:58.035Z,102493.64
2019-03-24T13:32:42.606Z,102503.70
2019-03-24T13:35:27.265Z,102512.47
2019-03-24T13:38:11.950Z,102511.92
2019-03-24T13:43:58.578Z,102465.92
2019-03-24T13:46:42.623Z,102500.33
2019-03-24T13:49:25.794Z,102498.70
2019-03-24T13:52:09.326Z,102458.38
2019-03-24T13:54:56.871Z,102458.52
2019-03-24T13:57:29.925Z,102478.95
2019-03-24T14:00:15.784Z,102482.56
2019-03-24T14:02:49.448Z,102479.88
2019-03-24T14:05:23.046Z,102479.95
2019-03-24T14:08:07.743Z,102470.86
2019-03-24T14:10:53.820Z,102466.22
2019-03-24T14:13:37.887Z,102436.52
2019-03-24T14:16:21.845Z,102454.13
2019-03-24T14:19:05.918Z,102463.05
2019-03-24T14:21:49.830Z,102450.16
2019-03-24T14:24:34.438Z,102434.39
2019-03-24T14:27:18.512Z,102413.33
2019-03-24T14:30:03.255Z,102434.45
2019-03-24T14:32:47.314Z,102416.28
2019-03-24T14:35:31.160Z,102402.88
2019-03-24T14:38:15.483Z,102428.05
2019-03-24T14:40:59.594Z,102424.39
2019-03-24T14:43:44.244Z,102404.22
2019-03-24T14:46:28.170Z,102402.80
2019-03-24T14:49:12.159Z,102391.80
2019-03-24T14:52:01.088Z,102408.24
2019-03-24T14:57:47.176Z,102385.93
2019-03-24T15:00:35.566Z,102404.92
2019-03-24T15:03:20.157Z,102397.34
2019-03-24T15:06:04.916Z,102377.16
2019-03-24T15:08:50.680Z,102368.52
2019-03-24T15:11:34.558Z,102368.40
2019-03-24T15:14:18.474Z,102365.28
2019-03-24T15:17:02.231Z,102373.76
2019-03-24T15:19:45.981Z,102358.31
2019-03-24T15:22:29.847Z,102379.58
2019-03-24T15:25:14.704Z,102375.47
2019-03-24T15:27:58.918Z,102383.67
2019-03-24T15:30:47.225Z,102370.59
2019-03-24T15:46:07.748Z,102334.18
2019-03-24T15:48:54.004Z,102323.14
2019-03-24T15:51:37.909Z,102323.84
2019-03-24T15:54:26.262Z,102352.05
2019-03-24T15:57:28.527Z,102321.50
2019-03-24T16:03:23.749Z,102314.64
2019-03-24T16:06:08.263Z,102324.89
2019-03-24T16:08:53.037Z,102344.41
2019-03-24T16:11:37.725Z,102319.31
2019-03-24T16:14:23.909Z,102343.76
2019-03-24T16:17:08.159Z,102307.68
2019-03-24T16:19:59.205Z,102307.10
2019-03-24T16:22:43.334Z,102321.44
2019-03-24T16:25:28.069Z,102329.38
2019-03-24T16:34:22.883Z,102327.55
2019-03-24T16:40:14.047Z,102300.64
2019-03-24T16:42:58.777Z,102299.82
2019-03-24T16:45:43.143Z,102312.10
2019-03-24T16:48:36.354Z,102292.19
2019-03-24T16:54:18.285Z,102313.08
2019-03-24T16:57:02.217Z,102290.09
2019-03-24T16:59:46.390Z,102304.63
2019-03-24T17:02:30.916Z,102279.48
2019-03-24T17:05:15.704Z,102277.30
2019-03-24T17:07:59.970Z,102258.68
2019-03-24T17:10:44.113Z,102276.34
2019-03-24T17:13:28.761Z,102267.77
2019-03-24T17:16:16.969Z,102287.81
2019-03-24T17:19:01.193Z,102249.88
2019-03-24T17:21:50.126Z,102288.08
2019-03-24T17:24:32.788Z,102296.42
2019-03-24T17:27:17.067Z,102269.89
2019-03-24T17:30:01.243Z,102261.28
2019-03-24T17:32:46.137Z,102294.26
2019-03-24T17:35:31.371Z,102265.00
2019-03-24T17:38:16.477Z,102268.25
2019-03-24T17:41:06.398Z,102281.15
2019-03-24T17:43:50.745Z,102280.23
2019-03-24T17:49:41.496Z,102263.81
2019-03-24T17:52:29.878Z,102260.63
2019-03-24T17:55:27.711Z,102258.29
2019-03-24T17:58:28.699Z,102284.47
2019-03-24T18:07:34.440Z,102246.48
2019-03-24T18:10:23.198Z,102267.04
2019-03-24T18:13:07.613Z,102239.34
2019-03-24T18:15:55.864Z,102266.44
2019-03-24T18:18:40.085Z,102266.95
2019-03-24T18:21:28.901Z,102263.56
2019-03-24T18:27:23.381Z,102236.30
2019-03-24T18:29:57.388Z,102254.89
2019-03-24T18:32:41.753Z,102229.55
2019-03-24T18:35:25.445Z,102258.03
2019-03-24T18:38:12.673Z,102255.15
2019-03-24T18:40:57.089Z,102230.78
2019-03-24T18:43:41.712Z,102252.25
2019-03-24T18:46:26.505Z,102221.56
2019-03-24T18:49:11.163Z,102245.59
2019-03-24T18:51:55.913Z,102244.64
2019-03-24T18:54:40.865Z,102238.03
2019-03-24T18:57:26.549Z,102238.14
2019-03-24T19:00:11.520Z,102242.10
2019-03-24T19:02:55.783Z,102229.03
2019-03-24T19:05:40.360Z,102230.20
2019-03-24T19:08:24.958Z,102194.70
2019-03-24T19:11:10.567Z,102194.00
2019-03-24T19:13:55.527Z,102188.91
2019-03-24T19:16:40.207Z,102211.54
2019-03-24T19:19:25.161Z,102179.97
2019-03-24T19:22:09.839Z,102172.97
2019-03-24T19:24:54.981Z,102171.58
2019-03-24T19:27:39.172Z,102194.03
2019-03-24T19:33:37.779Z,102180.38
2019-03-24T19:39:29.948Z,102176.21
2019-03-24T19:42:14.291Z,102169.03
2019-03-24T19:44:47.359Z,102164.10
2019-03-24T19:47:33.512Z,102161.59
2019-03-24T19:50:17.990Z,102149.09
2019-03-24T19:53:02.634Z,102145.74
2019-03-24T19:55:46.472Z,102120.70
2019-03-24T19:58:32.256Z,102124.73
2019-03-24T20:01:16.387Z,102117.10
2019-03-24T20:04:00.429Z,102135.20
2019-03-24T20:06:45.988Z,102135.09
2019-03-24T20:09:30.721Z,102126.17
2019-03-24T20:12:15.985Z,102120.16
2019-03-24T20:15:00.338Z,102112.07
2019-03-24T20:17:45.136Z,102097.11
2019-03-24T20:20:29.877Z,102065.51
2019-03-24T20:23:14.926Z,102086.48
2019-03-24T20:25:48.953Z,102076.39
2019-03-24T20:28:33.613Z,102068.78
2019-03-24T20:31:07.890Z,102063.48
2019-03-24T20:33:52.689Z,102035.48
2019-03-24T20:36:40.926Z,102036.70
2019-03-24T20:39:24.929Z,102025.23
2019-03-24T20:41:58.203Z,102054.38
2019-03-24T20:44:42.745Z,102024.00
2019-03-24T20:47:27.896Z,102049.40
2019-03-24T20:50:13.200Z,102019.73
2019-03-24T20:53:04.009Z,102047.45
2019-03-24T20:55:45.078Z,102009.17
2019-03-24T20:58:31.641Z,102034.68
2019-03-24T21:01:05.026Z,102032.91
2019-03-24T21:03:49.994Z,102013.05
2019-03-24T21:06:34.966Z,102040.41
2019-03-24T21:09:24.426Z,102011.94
2019-03-24T21:12:08.852Z,102004.19
2019-03-24T21:14:42.149Z,102032.36
2019-03-24T21:17:27.099Z,102029.26
2019-03-24T21:20:11.949Z,102023.60
2019-03-24T21:22:58.084Z,101995.05
2019-03-24T21:25:42.872Z,102022.56
2019-03-24T21:28:28.742Z,102016.96
2019-03-24T21:31:12.713Z,101986.89
2019-03-24T21:33:46.109Z,102002.56
2019-03-24T21:36:31.593Z,101962.21
2019-03-24T21:39:15.561Z,101964.70
2019-03-24T21:42:04.556Z,101959.53
2019-03-24T21:44:50.657Z,101948.11
2019-03-24T21:47:35.358Z,101971.86
2019-03-24T21:50:19.290Z,101968.63
2019-03-24T21:53:04.368Z,101959.38
2019-03-24T21:55:48.567Z,101927.59
2019-03-24T21:58:33.714Z,101923.59
2019-03-24T22:01:17.667Z,101912.25
2019-03-24T22:04:01.796Z,101908.91
2019-03-24T22:06:46.747Z,101905.09
2019-03-24T22:09:32.345Z,101898.34
2019-03-24T22:12:17.472Z,101888.77
2019-03-24T22:15:02.962Z,101911.05
2019-03-24T22:17:48.054Z,101901.05
2019-03-24T22:20:32.262Z,101874.16
2019-03-24T22:23:17.316Z,101904.22
2019-03-24T22:26:01.182Z,101861.70
2019-03-24T22:28:45.797Z,101870.66
2019-03-24T22:31:31.173Z,101853.68
2019-03-24T22:34:17.080Z,101857.11
2019-03-24T22:37:01.837Z,101856.11
2019-03-24T22:39:46.862Z,101846.80
2019-03-24T22:42:31.624Z,101817.38
2019-03-24T22:45:15.756Z,101803.78
2019-03-24T22:48:00.035Z,101809.90
2019-03-24T22:50:44.365Z,101830.47
2019-03-24T22:53:29.719Z,101791.08
2019-03-24T22:56:14.037Z,101786.78
2019-03-24T22:58:58.291Z,101773.05
2019-03-24T23:04:52.937Z,101753.91
2019-03-24T23:07:37.695Z,101782.09
2019-03-24T23:10:22.487Z,101744.05
2019-03-24T23:13:07.025Z,101742.87
2019-03-24T23:15:51.210Z,101751.38
2019-03-24T23:18:36.149Z,101718.45
2019-03-24T23:21:20.762Z,101737.44
2019-03-24T23:24:14.886Z,101729.44
2019-03-24T23:26:39.994Z,101715.49
2019-03-24T23:29:24.682Z,101675.70
2019-03-24T23:32:11.547Z,101696.19
2019-03-24T23:34:56.447Z,101688.16
2019-03-24T23:37:42.889Z,101681.16
2019-03-24T23:40:27.566Z,101673.81
2019-03-24T23:43:11.527Z,101646.94
2019-03-24T23:45:56.464Z,101632.73
2019-03-24T23:48:40.606Z,101623.20
2019-03-24T23:51:26.603Z,101649.24
2019-03-24T23:54:12.655Z,101635.32
2019-03-24T23:56:57.726Z,101634.46
2019-03-24T23:59:41.485Z,101618.69
